Grashul, South Dakota
Current Conditions -  °F | °C
As of 5:58 PM on Thursday 18 Dec 2014 (Local Time) from KRCA Reporting Station
Clear Clear  
Wind Chill: 28°   Ceiling: Unl
Heat Index: 28°   Visibility: 10mi
Dew Point: 24°   Wind: 0mph
Humidity: 85%   Direction: NA
Pressure: 29.99"   Gusts: NA
Location:  44.2544°N, 103.292°W
Report Text: KRCA 190058Z AUTO 00000KT 10SM CLR M02/M04 A2999 RMK AO2 SLP200 T10201042 $
Loading
Personal Weather Stations






























Interactive Weather Map New forecast layout! Learn more

10-Day Weather Forecast

Advertisements
Track Severe Weather on mobile